SV2BBO-2 Thessaloniki GR current weather conditions

sailwx.info

Wind from 181

Air temperature 13.3° C
Dewpoint -1.1° C

Last reported at 2014-Dec-19 15:38 UTC.
Time now 2014-Dec-19 16:31 UTC

Location: N 40°38' E 022°57'.
View on Google Maps.

See reports from other nearby stations

  
Tides and Currents Weather Stations Pressure Air Temp Water Temp Dewpoint Dewpoint Depression Visibility Wind Speed Wind Dir Waves Ship Positions
date/time (UTC)wind fromknots sea level pressurealtimeterstation pressurevisibilityair tempwater tempwave heightnotes
2014-Dec-19 15:38 181 13.3
2014-Dec-19 15:28 181 13.9
2014-Dec-19 15:18 180 13.9
2014-Dec-19 15:08 181 13.9
2014-Dec-19 14:58 181 13.3
2014-Dec-19 14:48 181 1 gusting 2 13.3
2014-Dec-19 14:38 181 13.3
2014-Dec-19 14:28 181 13.3
2014-Dec-19 14:18 181 0 13.9
2014-Dec-19 14:08 181 2 gusting 2 13.9
2014-Dec-19 13:57 181 13.9
2014-Dec-19 13:47 181 2 gusting 2 13.9
2014-Dec-19 13:37 180 2 gusting 3 13.9
2014-Dec-19 13:27 180 0 gusting 3 13.9
2014-Dec-19 13:17 181 2 gusting 2 13.9
2014-Dec-19 13:07 181 2 gusting 3 13.3
2014-Dec-19 12:57 181 2 gusting 3 13.3
2014-Dec-19 12:47 181 13.3
2014-Dec-19 12:37 181 3 gusting 3 13.3
2014-Dec-19 12:27 181 2 gusting 3 13.3
2014-Dec-19 12:17 181 2 gusting 3 13.3
2014-Dec-19 12:07 181 2 gusting 3 13.3
2014-Dec-19 11:57 181 3 gusting 4 13.3
2014-Dec-19 11:47 181 3 gusting 3 13.3
2014-Dec-19 11:37 181 3 gusting 5 12.8
2014-Dec-19 11:27 184 2 gusting 3 12.8
2014-Dec-19 11:17 173 1 gusting 3 12.8
2014-Dec-19 11:07 191 2 gusting 3 12.8
2014-Dec-19 10:57 222 3 gusting 4 12.8
2014-Dec-19 10:47 183 2 gusting 3 12.8
2014-Dec-19 10:37 228 3 gusting 3 12.8
2014-Dec-19 10:27 171 2 gusting 3 12.2
2014-Dec-19 10:17 192 0 gusting 3 12.2
2014-Dec-19 10:07 216 1 gusting 3 12.2
2014-Dec-19 09:57 223 2 gusting 4 11.7
2014-Dec-19 09:47 180 11.7
2014-Dec-19 09:37 179 3 gusting 3 11.7
2014-Dec-19 09:27 179 2 gusting 3 11.7
2014-Dec-19 09:17 179 11.7
2014-Dec-19 09:07 214 2 gusting 3 11.1
2014-Dec-19 08:57 232 3 gusting 4 11.1
2014-Dec-19 08:47 162 3 gusting 4 11.1
2014-Dec-19 08:37 160 1 gusting 3 11.1
2014-Dec-19 08:27 159 2 gusting 3 11.1
2014-Dec-19 08:17 159 0 gusting 2 11.1
2014-Dec-19 08:07 159 1 gusting 2 11.1
2014-Dec-19 07:57 102 2 gusting 3 10.6
2014-Dec-19 07:47 101 10.6
2014-Dec-19 07:37 086 10.0
2014-Dec-19 07:27 099 10.0
2014-Dec-19 07:17 072 2 gusting 2 10.0
2014-Dec-19 07:07 078 1 gusting 3 9.4
2014-Dec-19 06:57 060 9.4
2014-Dec-19 06:47 130 9.4
2014-Dec-19 06:37 130 0 gusting 2 9.4
2014-Dec-19 06:27 088 9.4
2014-Dec-19 06:17 083 1 gusting 3 9.4
2014-Dec-19 06:07 082 9.4
2014-Dec-19 05:57 078 2 gusting 2 10.0
2014-Dec-19 05:47 126 0 gusting 2 10.0
2014-Dec-19 05:37 053 10.0
2014-Dec-19 05:27 312 0 10.0
2014-Dec-19 05:17 330 2 gusting 4 10.0
2014-Dec-19 05:07 025 10.0
2014-Dec-19 04:57 287 3 gusting 4 10.6
2014-Dec-19 04:47 003 10.6
2014-Dec-19 04:37 357 10.6
2014-Dec-19 04:27 094 0 10.6
2014-Dec-19 04:17 026 2 gusting 3 10.6
2014-Dec-19 04:07 358 4 gusting 5 10.6
2014-Dec-19 03:57 325 2 gusting 4 10.6
2014-Dec-19 03:47 024 4 gusting 6 10.6
2014-Dec-19 03:37 319 4 gusting 4 10.0
2014-Dec-19 03:27 021 5 gusting 6 10.0
2014-Dec-19 03:17 190 2 gusting 2 10.0
2014-Dec-19 03:07 225 3 gusting 4 10.0
2014-Dec-19 02:57 339 2 gusting 2 10.0
2014-Dec-19 02:47 238 2 gusting 3 10.0
2014-Dec-19 02:38 331 1 gusting 5 10.0
2014-Dec-19 02:28 167 10.0
2014-Dec-19 02:18 167 10.0
2014-Dec-19 02:08 167 0 gusting 2 10.0
2014-Dec-19 01:58 167 2 gusting 3 10.0
2014-Dec-19 01:48 167 10.0
2014-Dec-19 01:38 167 3 gusting 4 10.6
2014-Dec-19 01:28 190 2 gusting 3 10.6
2014-Dec-19 01:18 231 3 gusting 3 10.6
2014-Dec-19 01:08 212 2 gusting 3 10.6
2014-Dec-19 00:58 077 10.6
2014-Dec-19 00:48 035 2 gusting 3 10.6
2014-Dec-19 00:38 042 1 gusting 2 10.6
2014-Dec-19 00:28 007 2 gusting 2 10.6
2014-Dec-19 00:18 024 10.6
2014-Dec-19 00:08 109 1 gusting 3 10.6
2014-Dec-18 23:58 182 10.6
2014-Dec-18 23:48 198 11.1
2014-Dec-18 23:38 223 2 gusting 4 11.1
2014-Dec-18 23:28 032 11.1
2014-Dec-18 23:18 003 3 gusting 5 10.6
2014-Dec-18 23:08 011 4 gusting 5 10.6
2014-Dec-18 22:58 010 10.6
2014-Dec-18 22:48 010 2 gusting 2 10.6
2014-Dec-18 22:38 357 0 gusting 2 10.6
2014-Dec-18 22:28 334 1 gusting 2 10.6
2014-Dec-18 22:18 299 10.6
2014-Dec-18 22:08 357 4 gusting 5 11.1
2014-Dec-18 21:58 139 11.1
2014-Dec-18 21:48 139 3 gusting 3 10.6
2014-Dec-18 21:38 139 2 gusting 3 11.1
2014-Dec-18 21:28 139 11.1
2014-Dec-18 21:18 139 11.1
2014-Dec-18 21:08 139 11.1
2014-Dec-18 20:58 139 11.7
2014-Dec-18 20:48 138 2 gusting 2 11.7
2014-Dec-18 20:38 166 2 gusting 5 11.1
2014-Dec-18 20:28 186 3 gusting 3 11.7
2014-Dec-18 20:18 186 11.7
2014-Dec-18 20:08 186 2 gusting 3 11.7
2014-Dec-18 19:58 186 11.7
2014-Dec-18 19:48 186 11.7
2014-Dec-18 19:38 186 11.7
2014-Dec-18 19:28 186 0 11.7
2014-Dec-18 19:18 186 11.7
2014-Dec-18 19:08 186 12.2
2014-Dec-18 18:58 186 12.2
2014-Dec-18 18:48 186 1 gusting 3 12.2
2014-Dec-18 18:38 218 2 gusting 4 12.2
2014-Dec-18 18:28 183 2 gusting 3 12.2
2014-Dec-18 18:18 183 12.2
2014-Dec-18 18:08 183 12.2
2014-Dec-18 17:58 183 12.8
2014-Dec-18 17:48 183 3 gusting 3 12.8
2014-Dec-18 17:38 221 12.8
2014-Dec-18 17:28 218 2 gusting 3 12.8
2014-Dec-18 17:18 255 2 gusting 3 12.8
2014-Dec-18 17:08 244 3 gusting 5 12.8
2014-Dec-18 16:58 218 3 gusting 4 12.8
2014-Dec-18 16:48 177 12.8
2014-Dec-18 16:38 177 12.8
2014-Dec-18 16:28 177 12.8
2014-Dec-18 16:18 177 13.3
2014-Dec-18 16:08 177 13.9
2014-Dec-18 15:58 177 2 gusting 2 14.4
2014-Dec-18 15:48 329 14.4
2014-Dec-18 15:38 329 13.9
2014-Dec-18 15:28 329 13.9
2014-Dec-18 15:18 330 0 gusting 2 13.3
2014-Dec-18 15:08 316 2 gusting 3 13.3
2014-Dec-18 14:58 13.9
2014-Dec-18 14:48 329 3 gusting 4 13.9
2014-Dec-18 14:38 337 0 gusting 2 13.9
2014-Dec-18 14:28 320 4 gusting 5 13.9
2014-Dec-18 14:18 308 3 gusting 4 13.9
2014-Dec-18 14:08 339 3 gusting 4 13.9
2014-Dec-18 13:58 289 3 gusting 5 13.9
2014-Dec-18 13:48 353 3 gusting 5 13.9
2014-Dec-18 13:38 355 3 gusting 5 13.9
2014-Dec-18 13:28 344 4 gusting 4 13.9
2014-Dec-18 13:18 005 3 gusting 5 13.9
2014-Dec-18 13:08 338 3 gusting 3 13.3
2014-Dec-18 12:58 354 3 gusting 5 13.3
2014-Dec-18 12:48 338 2 gusting 4 13.3
2014-Dec-18 12:38 210 2 gusting 3 13.3
2014-Dec-18 12:28 184 3 gusting 3 13.3
2014-Dec-18 12:18 150 1 gusting 4 13.3
2014-Dec-18 12:08 147 2 gusting 3 13.3
2014-Dec-18 11:58 168 3 gusting 4 13.3
2014-Dec-18 11:48 168 13.3
2014-Dec-18 11:38 168 3 gusting 4 13.3
2014-Dec-18 11:28 183 3 gusting 4 13.3
2014-Dec-18 11:18 204 3 gusting 4 12.8
2014-Dec-18 11:08 226 4 gusting 4 12.8
2014-Dec-18 10:58 243 4 gusting 6 12.8
2014-Dec-18 10:48 200 0 gusting 3 12.8
2014-Dec-18 10:38 282 12.8
2014-Dec-18 10:28 316 2 gusting 3 12.2
2014-Dec-18 10:18 336 0 12.2
2014-Dec-18 10:08 357 3 gusting 4 12.2
2014-Dec-18 09:58 315 3 gusting 4 12.2
2014-Dec-18 09:48 329 2 gusting 3 12.2
2014-Dec-18 09:38 258 11.7
2014-Dec-18 09:28 291 0 11.7
2014-Dec-18 09:18 333 0 11.7
2014-Dec-18 09:08 340 2 gusting 2 11.1
2014-Dec-18 08:58 337 2 gusting 3 11.1
2014-Dec-18 08:48 357 2 gusting 3 11.1
2014-Dec-18 08:38 290 4 gusting 4 11.1
2014-Dec-18 08:28 246 11.1
2014-Dec-18 08:18 286 2 gusting 3 11.1
2014-Dec-18 08:08 284 1 gusting 3 10.6
2014-Dec-18 07:58 257 2 gusting 3 11.1
2014-Dec-18 07:48 238 0 gusting 3 11.1
2014-Dec-18 07:38 060 11.1
2014-Dec-18 07:28 066 11.1
2014-Dec-18 07:18 331 11.1
2014-Dec-18 07:08 332 0 10.6
2014-Dec-18 06:58 332 10.6
2014-Dec-18 06:48 347 2 gusting 3 10.6
2014-Dec-18 05:48 086 2 gusting 2 10.6
2014-Dec-18 05:38 078 2 gusting 3 10.6
2014-Dec-18 05:28 026 1 gusting 3 10.6
2014-Dec-18 05:18 301 11.1
2014-Dec-18 05:08 301 10.6
2014-Dec-18 04:58 302 2 gusting 3 10.6
2014-Dec-18 04:48 009 4 gusting 5 10.6
2014-Dec-18 04:38 353 2 gusting 3 10.6
2014-Dec-18 04:28 054 2 gusting 3 10.0
2014-Dec-18 04:18 043 3 gusting 3 10.6
2014-Dec-18 04:08 044 3 gusting 4 10.6
2014-Dec-18 03:58 354 3 gusting 4 10.6
2014-Dec-18 03:48 056 2 gusting 4 10.6
2014-Dec-18 03:38 084 11.1
2014-Dec-18 03:28 084 11.1
2014-Dec-18 03:18 076 0 gusting 3 11.1
2014-Dec-18 03:08 021 6 gusting 7 11.1
2014-Dec-18 02:58 028 4 gusting 3 11.1
2014-Dec-18 02:48 340 2 gusting 3 11.1
2014-Dec-18 02:37 357 11.1
2014-Dec-18 02:27 357 1 gusting 2 11.1
2014-Dec-18 02:17 353 11.1
2014-Dec-18 02:07 272 11.1
2014-Dec-18 01:57 268 1 gusting 3 11.1
2014-Dec-18 01:47 316 1 gusting 3 11.1
2014-Dec-18 01:37 279 2 gusting 2 11.1
2014-Dec-18 01:27 172 3 gusting 4 11.7
2014-Dec-18 01:17 172 1 gusting 3 11.7
2014-Dec-18 01:07 172 11.7
2014-Dec-18 00:57 172 11.7
2014-Dec-18 00:47 172 0 gusting 3 11.7
2014-Dec-18 00:37 172 11.7
2014-Dec-18 00:27 172 11.7
2014-Dec-18 00:17 172 1 gusting 3 11.7
2014-Dec-18 00:07 172 2 gusting 2 11.7
2014-Dec-17 23:57 169 2 gusting 3 11.7
2014-Dec-17 23:47 169 1 gusting 2 11.7
2014-Dec-17 23:37 169 11.7
2014-Dec-17 23:27 169 1 gusting 3 11.7
2014-Dec-17 23:17 169 11.7
2014-Dec-17 23:07 169 0 11.7
2014-Dec-17 22:57 169 1 gusting 2 12.2
2014-Dec-17 22:47 169 12.2
2014-Dec-17 22:37 169 12.2
2014-Dec-17 22:27 169 12.2
2014-Dec-17 22:17 169 0 gusting 3 12.2
2014-Dec-17 22:07 169 12.2
2014-Dec-17 21:57 209 2 gusting 2 12.2
2014-Dec-17 21:47 291 12.2
2014-Dec-17 21:37 065 12.8
2014-Dec-17 21:27 065 12.2
2014-Dec-17 21:17 065 12.8
2014-Dec-17 21:07 065 12.8
2014-Dec-17 20:57 065 12.8
2014-Dec-17 20:47 011 12.8
2014-Dec-17 20:37 011 12.2
2014-Dec-17 20:27 357 1 gusting 2 12.2
2014-Dec-17 20:17 039 3 gusting 3 12.2
2014-Dec-17 20:07 309 12.2
2014-Dec-17 19:57 291 2 gusting 3 12.2
2014-Dec-17 19:47 289 3 gusting 4 12.2
2014-Dec-17 19:37 254 1 gusting 3 12.8
2014-Dec-17 19:27 233 12.8
2014-Dec-17 19:17 235 12.8
2014-Dec-17 19:07 199 3 gusting 4 12.8
2014-Dec-17 18:57 338 1 gusting 2 12.8
2014-Dec-17 18:47 037 12.8
2014-Dec-17 18:37 037 12.8
2014-Dec-17 18:27 036 12.8
2014-Dec-17 18:17 048 3 gusting 3 12.8
2014-Dec-17 18:07 339 1 gusting 2 12.8
2014-Dec-17 17:57 287 3 gusting 3 12.8
2014-Dec-17 17:47 291 12.8
2014-Dec-17 17:37 267 3 gusting 3 12.8
2014-Dec-17 17:27 300 5 gusting 4 12.8
2014-Dec-17 17:17 156 2 gusting 3 13.3
2014-Dec-17 17:07 155 2 gusting 3 13.3
2014-Dec-17 16:57 142 3 gusting 5 13.3
2014-Dec-17 16:47 194 13.3
2014-Dec-17 16:37 221 4 gusting 5 13.3
2014-Dec-17 16:27 212 4 gusting 6 13.3
2014-Dec-17 16:17 155 1 gusting 2 13.3
2014-Dec-17 16:07 157 1 gusting 4 13.3